sensor_id;sensor_type;location;lat;lon;timestamp;temperature;humidity
4107;DHT22;21906;50.812;7.132;2023-03-01T00:01:11;2.20;58.10
4107;DHT22;21906;50.812;7.132;2023-03-01T00:03:37;2.20;58.20
4107;DHT22;21906;50.812;7.132;2023-03-01T00:06:03;2.20;58.20
4107;DHT22;21906;50.812;7.132;2023-03-01T00:08:33;2.10;58.50
4107;DHT22;21906;50.812;7.132;2023-03-01T00:13:36;2.10;58.70
4107;DHT22;21906;50.812;7.132;2023-03-01T00:16:13;2.00;58.70
4107;DHT22;21906;50.812;7.132;2023-03-01T00:18:39;2.00;58.80
4107;DHT22;21906;50.812;7.132;2023-03-01T00:21:05;2.00;59.20
4107;DHT22;21906;50.812;7.132;2023-03-01T00:23:31;1.90;59.40
4107;DHT22;21906;50.812;7.132;2023-03-01T00:25:57;1.90;59.60
4107;DHT22;21906;50.812;7.132;2023-03-01T00:28:22;1.90;59.70
4107;DHT22;21906;50.812;7.132;2023-03-01T00:30:48;1.90;59.50
4107;DHT22;21906;50.812;7.132;2023-03-01T00:33:14;1.90;59.50
4107;DHT22;21906;50.812;7.132;2023-03-01T00:35:40;1.90;59.70
4107;DHT22;21906;50.812;7.132;2023-03-01T00:38:06;1.90;59.50
4107;DHT22;21906;50.812;7.132;2023-03-01T00:40:33;1.90;59.50
4107;DHT22;21906;50.812;7.132;2023-03-01T00:42:59;1.80;59.50
4107;DHT22;21906;50.812;7.132;2023-03-01T00:45:25;1.90;59.60
4107;DHT22;21906;50.812;7.132;2023-03-01T00:47:51;1.80;59.80
4107;DHT22;21906;50.812;7.132;2023-03-01T00:50:18;1.80;59.90
4107;DHT22;21906;50.812;7.132;2023-03-01T00:52:44;1.70;60.10
4107;DHT22;21906;50.812;7.132;2023-03-01T00:55:10;1.70;59.90
4107;DHT22;21906;50.812;7.132;2023-03-01T00:57:36;1.70;59.90
4107;DHT22;21906;50.812;7.132;2023-03-01T01:00:05;1.70;59.90
4107;DHT22;21906;50.812;7.132;2023-03-01T01:02:35;1.70;60.10
4107;DHT22;21906;50.812;7.132;2023-03-01T01:05:00;1.70;60.30
4107;DHT22;21906;50.812;7.132;2023-03-01T01:07:26;1.70;60.30
4107;DHT22;21906;50.812;7.132;2023-03-01T01:09:52;1.60;60.40
4107;DHT22;21906;50.812;7.132;2023-03-01T01:12:19;1.50;60.50
4107;DHT22;21906;50.812;7.132;2023-03-01T01:14:45;1.50;60.50
4107;DHT22;21906;50.812;7.132;2023-03-01T01:17:12;1.50;60.60
4107;DHT22;21906;50.812;7.132;2023-03-01T01:19:38;1.50;60.60
4107;DHT22;21906;50.812;7.132;2023-03-01T01:22:03;1.50;60.80
4107;DHT22;21906;50.812;7.132;2023-03-01T01:24:32;1.50;60.70
4107;DHT22;21906;50.812;7.132;2023-03-01T01:26:58;1.40;60.80
4107;DHT22;21906;50.812;7.132;2023-03-01T01:29:24;1.40;61.00
4107;DHT22;21906;50.812;7.132;2023-03-01T01:31:50;1.40;61.10
4107;DHT22;21906;50.812;7.132;2023-03-01T01:34:21;1.40;61.20
4107;DHT22;21906;50.812;7.132;2023-03-01T01:36:52;1.40;61.20
4107;DHT22;21906;50.812;7.132;2023-03-01T01:39:20;1.40;61.10
4107;DHT22;21906;50.812;7.132;2023-03-01T01:41:49;1.30;61.40
4107;DHT22;21906;50.812;7.132;2023-03-01T01:44:23;1.30;61.40
4107;DHT22;21906;50.812;7.132;2023-03-01T01:47:30;1.30;61.50
4107;DHT22;21906;50.812;7.132;2023-03-01T01:50:08;1.30;61.40
4107;DHT22;21906;50.812;7.132;2023-03-01T01:52:40;1.30;61.40
4107;DHT22;21906;50.812;7.132;2023-03-01T01:55:23;1.20;61.50
4107;DHT22;21906;50.812;7.132;2023-03-01T01:57:55;1.20;61.50
4107;DHT22;21906;50.812;7.132;2023-03-01T02:00:30;1.20;61.70
4107;DHT22;21906;50.812;7.132;2023-03-01T02:03:03;1.20;61.70
4107;DHT22;21906;50.812;7.132;2023-03-01T02:06:06;1.20;61.50
4107;DHT22;21906;50.812;7.132;2023-03-01T02:08:36;1.20;61.50
4107;DHT22;21906;50.812;7.132;2023-03-01T02:11:06;1.20;61.50
4107;DHT22;21906;50.812;7.132;2023-03-01T02:13:34;1.20;61.50
4107;DHT22;21906;50.812;7.132;2023-03-01T02:16:03;1.10;61.50
4107;DHT22;21906;50.812;7.132;2023-03-01T02:18:32;1.10;61.60
4107;DHT22;21906;50.812;7.132;2023-03-01T02:24:01;1.00;61.80
4107;DHT22;21906;50.812;7.132;2023-03-01T02:26:36;0.90;61.90
4107;DHT22;21906;50.812;7.132;2023-03-01T02:29:30;0.90;61.90
4107;DHT22;21906;50.812;7.132;2023-03-01T02:32:09;0.90;62.20
4107;DHT22;21906;50.812;7.132;2023-03-01T02:34:42;1.00;62.30
4107;DHT22;21906;50.812;7.132;2023-03-01T02:37:16;1.00;62.30
4107;DHT22;21906;50.812;7.132;2023-03-01T02:39:57;1.00;62.20
4107;DHT22;21906;50.812;7.132;2023-03-01T02:42:32;1.00;62.20
4107;DHT22;21906;50.812;7.132;2023-03-01T02:45:11;1.00;62.10
4107;DHT22;21906;50.812;7.132;2023-03-01T02:47:37;0.90;62.20
4107;DHT22;21906;50.812;7.132;2023-03-01T02:56:28;0.80;62.80
4107;DHT22;21906;50.812;7.132;2023-03-01T02:59:04;0.80;62.80
4107;DHT22;21906;50.812;7.132;2023-03-01T03:01:34;0.70;63.00
4107;DHT22;21906;50.812;7.132;2023-03-01T03:04:11;0.60;63.20
4107;DHT22;21906;50.812;7.132;2023-03-01T03:07:22;0.60;63.50
4107;DHT22;21906;50.812;7.132;2023-03-01T03:10:04;0.50;63.70
4107;DHT22;21906;50.812;7.132;2023-03-01T03:12:55;0.50;63.70
4107;DHT22;21906;50.812;7.132;2023-03-01T03:15:32;0.50;63.50
4107;DHT22;21906;50.812;7.132;2023-03-01T03:19:12;0.50;63.70
4107;DHT22;21906;50.812;7.132;2023-03-01T03:24:22;0.40;63.80
4107;DHT22;21906;50.812;7.132;2023-03-01T03:27:00;0.50;63.50
4107;DHT22;21906;50.812;7.132;2023-03-01T03:32:22;0.40;63.60
4107;DHT22;21906;50.812;7.132;2023-03-01T03:34:51;0.40;63.60
4107;DHT22;21906;50.812;7.132;2023-03-01T03:37:18;0.40;63.60
4107;DHT22;21906;50.812;7.132;2023-03-01T03:40:05;0.40;63.70
4107;DHT22;21906;50.812;7.132;2023-03-01T03:42:41;0.30;63.80
4107;DHT22;21906;50.812;7.132;2023-03-01T03:45:10;0.30;63.70
4107;DHT22;21906;50.812;7.132;2023-03-01T03:47:39;0.30;63.50
4107;DHT22;21906;50.812;7.132;2023-03-01T03:50:15;0.30;63.50
4107;DHT22;21906;50.812;7.132;2023-03-01T03:52:42;0.30;63.50
4107;DHT22;21906;50.812;7.132;2023-03-01T03:55:16;0.30;63.80
4107;DHT22;21906;50.812;7.132;2023-03-01T03:57:48;0.20;63.70
4107;DHT22;21906;50.812;7.132;2023-03-01T04:00:22;0.20;63.70
4107;DHT22;21906;50.812;7.132;2023-03-01T04:02:59;0.20;63.70
4107;DHT22;21906;50.812;7.132;2023-03-01T04:05:33;0.20;63.90
4107;DHT22;21906;50.812;7.132;2023-03-01T04:07:59;0.20;63.80
4107;DHT22;21906;50.812;7.132;2023-03-01T04:10:58;0.20;63.70
4107;DHT22;21906;50.812;7.132;2023-03-01T04:13:25;0.20;63.70
4107;DHT22;21906;50.812;7.132;2023-03-01T04:16:37;0.00;64.10
4107;DHT22;21906;50.812;7.132;2023-03-01T04:19:09;0.00;64.30
4107;DHT22;21906;50.812;7.132;2023-03-01T04:21:38;0.00;64.50
4107;DHT22;21906;50.812;7.132;2023-03-01T04:24:08;0.00;65.10
4107;DHT22;21906;50.812;7.132;2023-03-01T04:26:35;0.00;65.30
4107;DHT22;21906;50.812;7.132;2023-03-01T04:29:07;0.00;65.10
4107;DHT22;21906;50.812;7.132;2023-03-01T04:31:41;0.00;64.80
4107;DHT22;21906;50.812;7.132;2023-03-01T04:34:08;0.00;64.70
4107;DHT22;21906;50.812;7.132;2023-03-01T04:36:41;0.00;64.60
4107;DHT22;21906;50.812;7.132;2023-03-01T04:39:07;0.00;64.40
4107;DHT22;21906;50.812;7.132;2023-03-01T04:41:38;0.00;64.60
4107;DHT22;21906;50.812;7.132;2023-03-01T04:44:17;0.00;64.60
4107;DHT22;21906;50.812;7.132;2023-03-01T04:46:44;0.00;64.70
4107;DHT22;21906;50.812;7.132;2023-03-01T04:49:25;0.00;64.80
4107;DHT22;21906;50.812;7.132;2023-03-01T04:51:56;0.00;64.80
4107;DHT22;21906;50.812;7.132;2023-03-01T04:54:28;0.00;64.70
4107;DHT22;21906;50.812;7.132;2023-03-01T04:57:10;0.00;64.60
4107;DHT22;21906;50.812;7.132;2023-03-01T04:59:51;0.00;64.40
4107;DHT22;21906;50.812;7.132;2023-03-01T05:02:50;0.00;64.60
4107;DHT22;21906;50.812;7.132;2023-03-01T05:05:46;-3276.70;64.90
4107;DHT22;21906;50.812;7.132;2023-03-01T05:08:21;-3276.70;64.70
4107;DHT22;21906;50.812;7.132;2023-03-01T05:10:54;-3276.70;64.90
4107;DHT22;21906;50.812;7.132;2023-03-01T05:13:35;-3276.70;64.80
4107;DHT22;21906;50.812;7.132;2023-03-01T05:16:16;-3276.70;64.80
4107;DHT22;21906;50.812;7.132;2023-03-01T05:18:51;-3276.70;64.70
4107;DHT22;21906;50.812;7.132;2023-03-01T05:21:46;-3276.70;64.90
4107;DHT22;21906;50.812;7.132;2023-03-01T05:24:28;-3276.70;64.80
4107;DHT22;21906;50.812;7.132;2023-03-01T05:26:57;-3276.70;64.60
4107;DHT22;21906;50.812;7.132;2023-03-01T05:29:30;-3276.60;64.80
4107;DHT22;21906;50.812;7.132;2023-03-01T05:32:10;-3276.60;64.80
4107;DHT22;21906;50.812;7.132;2023-03-01T05:35:09;-3276.60;64.50
4107;DHT22;21906;50.812;7.132;2023-03-01T05:38:01;-3276.60;64.40
4107;DHT22;21906;50.812;7.132;2023-03-01T05:40:39;-3276.50;64.70
4107;DHT22;21906;50.812;7.132;2023-03-01T05:43:22;-3276.50;64.80
4107;DHT22;21906;50.812;7.132;2023-03-01T05:46:07;-3276.50;64.80
4107;DHT22;21906;50.812;7.132;2023-03-01T05:48:46;-3276.50;65.10
4107;DHT22;21906;50.812;7.132;2023-03-01T05:51:18;-3276.50;65.00
4107;DHT22;21906;50.812;7.132;2023-03-01T05:53:53;-3276.40;64.90
4107;DHT22;21906;50.812;7.132;2023-03-01T05:56:25;-3276.50;64.90
4107;DHT22;21906;50.812;7.132;2023-03-01T05:58:55;-3276.50;64.90
4107;DHT22;21906;50.812;7.132;2023-03-01T06:01:27;-3276.50;65.00
4107;DHT22;21906;50.812;7.132;2023-03-01T06:04:28;-3276.50;65.10
4107;DHT22;21906;50.812;7.132;2023-03-01T06:07:21;-3276.40;65.30
4107;DHT22;21906;50.812;7.132;2023-03-01T06:09:54;-3276.40;65.20
4107;DHT22;21906;50.812;7.132;2023-03-01T06:12:23;-3276.40;65.30
4107;DHT22;21906;50.812;7.132;2023-03-01T06:14:58;-3276.40;65.20
4107;DHT22;21906;50.812;7.132;2023-03-01T06:17:33;-3276.40;65.30
4107;DHT22;21906;50.812;7.132;2023-03-01T06:22:44;-3276.30;65.50
4107;DHT22;21906;50.812;7.132;2023-03-01T06:25:16;-3276.30;65.30
4107;DHT22;21906;50.812;7.132;2023-03-01T06:27:48;-3276.40;65.10
4107;DHT22;21906;50.812;7.132;2023-03-01T06:30:30;-3276.40;65.20
4107;DHT22;21906;50.812;7.132;2023-03-01T06:33:04;-3276.30;65.30
4107;DHT22;21906;50.812;7.132;2023-03-01T06:36:08;-3276.20;65.80
4107;DHT22;21906;50.812;7.132;2023-03-01T06:38:47;-3276.20;66.00
4107;DHT22;21906;50.812;7.132;2023-03-01T06:41:53;-3276.30;66.00
4107;DHT22;21906;50.812;7.132;2023-03-01T06:44:21;-3276.20;66.60
4107;DHT22;21906;50.812;7.132;2023-03-01T06:46:59;-3276.10;66.70
4107;DHT22;21906;50.812;7.132;2023-03-01T06:49:25;-3276.30;66.40
4107;DHT22;21906;50.812;7.132;2023-03-01T06:52:12;-3276.30;66.00
4107;DHT22;21906;50.812;7.132;2023-03-01T06:54:46;-3276.40;65.80
4107;DHT22;21906;50.812;7.132;2023-03-01T06:57:44;-3276.40;65.80
4107;DHT22;21906;50.812;7.132;2023-03-01T07:00:16;-3276.50;65.60
4107;DHT22;21906;50.812;7.132;2023-03-01T07:02:43;-3276.60;65.50
4107;DHT22;21906;50.812;7.132;2023-03-01T07:05:11;-3276.60;65.50
4107;DHT22;21906;50.812;7.132;2023-03-01T07:08:33;-3276.70;65.60
4107;DHT22;21906;50.812;7.132;2023-03-01T07:11:38;0.00;65.60
4107;DHT22;21906;50.812;7.132;2023-03-01T07:14:12;0.00;65.40
4107;DHT22;21906;50.812;7.132;2023-03-01T07:16:38;0.10;65.20
4107;DHT22;21906;50.812;7.132;2023-03-01T07:19:07;0.10;64.90
4107;DHT22;21906;50.812;7.132;2023-03-01T07:21:39;0.10;64.90
4107;DHT22;21906;50.812;7.132;2023-03-01T07:24:07;0.20;64.80
4107;DHT22;21906;50.812;7.132;2023-03-01T07:26:36;0.30;64.80
4107;DHT22;21906;50.812;7.132;2023-03-01T07:29:09;0.40;64.80
4107;DHT22;21906;50.812;7.132;2023-03-01T07:31:35;0.40;64.70
4107;DHT22;21906;50.812;7.132;2023-03-01T07:34:02;0.50;64.50
4107;DHT22;21906;50.812;7.132;2023-03-01T07:36:31;0.60;64.30
4107;DHT22;21906;50.812;7.132;2023-03-01T07:39:02;0.60;64.00
4107;DHT22;21906;50.812;7.132;2023-03-01T07:41:35;0.60;64.00
4107;DHT22;21906;50.812;7.132;2023-03-01T07:44:03;0.50;64.20
4107;DHT22;21906;50.812;7.132;2023-03-01T07:46:30;0.50;64.30
4107;DHT22;21906;50.812;7.132;2023-03-01T07:48:55;0.50;64.30
4107;DHT22;21906;50.812;7.132;2023-03-01T07:51:23;0.60;64.30
4107;DHT22;21906;50.812;7.132;2023-03-01T07:54:03;0.70;64.20
4107;DHT22;21906;50.812;7.132;2023-03-01T07:56:29;0.70;64.20
4107;DHT22;21906;50.812;7.132;2023-03-01T07:58:55;0.80;63.90
4107;DHT22;21906;50.812;7.132;2023-03-01T08:01:22;0.90;63.70
4107;DHT22;21906;50.812;7.132;2023-03-01T08:03:48;0.90;63.80
4107;DHT22;21906;50.812;7.132;2023-03-01T08:06:16;0.90;64.10
4107;DHT22;21906;50.812;7.132;2023-03-01T08:08:42;1.00;63.90
4107;DHT22;21906;50.812;7.132;2023-03-01T08:11:11;1.10;63.60
4107;DHT22;21906;50.812;7.132;2023-03-01T08:13:37;1.30;63.00
4107;DHT22;21906;50.812;7.132;2023-03-01T08:16:12;1.40;62.70
4107;DHT22;21906;50.812;7.132;2023-03-01T08:18:38;1.50;62.00
4107;DHT22;21906;50.812;7.132;2023-03-01T08:21:12;1.60;61.70
4107;DHT22;21906;50.812;7.132;2023-03-01T08:23:38;1.80;61.60
4107;DHT22;21906;50.812;7.132;2023-03-01T08:28:38;1.90;61.00
4107;DHT22;21906;50.812;7.132;2023-03-01T08:31:17;2.00;60.70
4107;DHT22;21906;50.812;7.132;2023-03-01T08:33:46;2.10;60.50
4107;DHT22;21906;50.812;7.132;2023-03-01T08:36:16;2.10;60.20
4107;DHT22;21906;50.812;7.132;2023-03-01T08:38:44;2.20;60.30
4107;DHT22;21906;50.812;7.132;2023-03-01T08:41:11;2.30;60.40
4107;DHT22;21906;50.812;7.132;2023-03-01T08:43:37;2.40;60.30
4107;DHT22;21906;50.812;7.132;2023-03-01T08:46:02;2.40;60.20
4107;DHT22;21906;50.812;7.132;2023-03-01T08:48:28;2.60;60.10
4107;DHT22;21906;50.812;7.132;2023-03-01T08:50:54;2.70;59.90
4107;DHT22;21906;50.812;7.132;2023-03-01T08:53:20;2.80;59.80
4107;DHT22;21906;50.812;7.132;2023-03-01T08:55:46;2.80;59.40
4107;DHT22;21906;50.812;7.132;2023-03-01T08:58:12;2.90;59.10
4107;DHT22;21906;50.812;7.132;2023-03-01T09:00:38;3.00;58.90
4107;DHT22;21906;50.812;7.132;2023-03-01T09:03:04;2.90;59.30
4107;DHT22;21906;50.812;7.132;2023-03-01T09:05:33;3.00;59.30
4107;DHT22;21906;50.812;7.132;2023-03-01T09:07:59;3.00;59.40
4107;DHT22;21906;50.812;7.132;2023-03-01T09:10:25;3.10;59.40
4107;DHT22;21906;50.812;7.132;2023-03-01T09:12:52;3.20;59.30
4107;DHT22;21906;50.812;7.132;2023-03-01T09:15:17;3.40;59.20
4107;DHT22;21906;50.812;7.132;2023-03-01T09:17:43;3.50;58.90
4107;DHT22;21906;50.812;7.132;2023-03-01T09:20:09;3.70;58.70
4107;DHT22;21906;50.812;7.132;2023-03-01T09:22:36;3.80;58.20
4107;DHT22;21906;50.812;7.132;2023-03-01T09:25:02;3.90;58.20
4107;DHT22;21906;50.812;7.132;2023-03-01T09:27:27;4.00;58.10
4107;DHT22;21906;50.812;7.132;2023-03-01T09:29:53;4.10;58.30
4107;DHT22;21906;50.812;7.132;2023-03-01T09:32:21;3.90;57.70
4107;DHT22;21906;50.812;7.132;2023-03-01T09:34:50;3.90;57.80
4107;DHT22;21906;50.812;7.132;2023-03-01T09:37:31;4.10;57.60
4107;DHT22;21906;50.812;7.132;2023-03-01T09:39:57;4.00;57.60
4107;DHT22;21906;50.812;7.132;2023-03-01T09:42:23;3.80;57.90
4107;DHT22;21906;50.812;7.132;2023-03-01T09:44:59;3.90;58.30
4107;DHT22;21906;50.812;7.132;2023-03-01T09:47:30;3.90;58.00
4107;DHT22;21906;50.812;7.132;2023-03-01T09:50:18;3.90;58.60
4107;DHT22;21906;50.812;7.132;2023-03-01T09:53:02;3.90;59.40
4107;DHT22;21906;50.812;7.132;2023-03-01T09:55:45;4.00;58.00
4107;DHT22;21906;50.812;7.132;2023-03-01T09:58:47;4.20;57.30
4107;DHT22;21906;50.812;7.132;2023-03-01T10:04:11;4.70;56.70
4107;DHT22;21906;50.812;7.132;2023-03-01T10:06:49;4.90;56.30
4107;DHT22;21906;50.812;7.132;2023-03-01T10:09:17;5.00;55.80
4107;DHT22;21906;50.812;7.132;2023-03-01T10:11:46;5.20;55.60
4107;DHT22;21906;50.812;7.132;2023-03-01T10:14:40;5.40;55.50
4107;DHT22;21906;50.812;7.132;2023-03-01T10:19:41;5.70;52.30
4107;DHT22;21906;50.812;7.132;2023-03-01T10:22:16;5.90;53.40
4107;DHT22;21906;50.812;7.132;2023-03-01T10:24:43;6.20;51.70
4107;DHT22;21906;50.812;7.132;2023-03-01T10:27:38;6.30;50.80
4107;DHT22;21906;50.812;7.132;2023-03-01T10:30:40;6.40;51.00
4107;DHT22;21906;50.812;7.132;2023-03-01T10:33:31;6.50;52.10
4107;DHT22;21906;50.812;7.132;2023-03-01T10:35:57;6.50;50.00
4107;DHT22;21906;50.812;7.132;2023-03-01T10:38:23;6.60;48.40
4107;DHT22;21906;50.812;7.132;2023-03-01T10:40:58;6.60;50.20
4107;DHT22;21906;50.812;7.132;2023-03-01T10:43:46;6.70;49.20
4107;DHT22;21906;50.812;7.132;2023-03-01T10:46:41;6.80;48.60
4107;DHT22;21906;50.812;7.132;2023-03-01T10:49:20;7.00;49.00
4107;DHT22;21906;50.812;7.132;2023-03-01T10:51:51;7.10;49.80
4107;DHT22;21906;50.812;7.132;2023-03-01T10:57:01;7.40;48.40
4107;DHT22;21906;50.812;7.132;2023-03-01T10:59:35;7.40;48.90
4107;DHT22;21906;50.812;7.132;2023-03-01T11:05:02;7.30;45.60
4107;DHT22;21906;50.812;7.132;2023-03-01T11:07:56;7.50;47.40
4107;DHT22;21906;50.812;7.132;2023-03-01T11:10:28;7.70;47.20
4107;DHT22;21906;50.812;7.132;2023-03-01T11:13:16;7.80;46.50
4107;DHT22;21906;50.812;7.132;2023-03-01T11:15:43;8.00;46.80
4107;DHT22;21906;50.812;7.132;2023-03-01T11:18:31;8.00;43.60
4107;DHT22;21906;50.812;7.132;2023-03-01T11:20:59;8.00;46.10
4107;DHT22;21906;50.812;7.132;2023-03-01T11:23:29;8.10;46.40
4107;DHT22;21906;50.812;7.132;2023-03-01T11:25:59;8.40;45.60
4107;DHT22;21906;50.812;7.132;2023-03-01T11:28:29;8.50;44.30
4107;DHT22;21906;50.812;7.132;2023-03-01T11:31:04;8.50;44.80
4107;DHT22;21906;50.812;7.132;2023-03-01T11:33:53;8.50;44.80
4107;DHT22;21906;50.812;7.132;2023-03-01T11:36:36;8.50;43.60
4107;DHT22;21906;50.812;7.132;2023-03-01T11:39:39;8.40;42.40
4107;DHT22;21906;50.812;7.132;2023-03-01T11:42:22;8.40;45.40
4107;DHT22;21906;50.812;7.132;2023-03-01T11:44:59;8.60;43.80
4107;DHT22;21906;50.812;7.132;2023-03-01T11:47:51;8.60;43.10
4107;DHT22;21906;50.812;7.132;2023-03-01T12:02:21;9.30;43.20
4107;DHT22;21906;50.812;7.132;2023-03-01T12:10:31;9.80;41.50
4107;DHT22;21906;50.812;7.132;2023-03-01T12:13:39;9.70;40.20
4107;DHT22;21906;50.812;7.132;2023-03-01T12:22:30;9.90;39.30
4107;DHT22;21906;50.812;7.132;2023-03-01T12:33:21;10.40;40.90
4107;DHT22;21906;50.812;7.132;2023-03-01T12:36:10;10.60;39.00
4107;DHT22;21906;50.812;7.132;2023-03-01T12:38:49;10.90;39.40
4107;DHT22;21906;50.812;7.132;2023-03-01T12:49:30;11.20;36.80
4107;DHT22;21906;50.812;7.132;2023-03-01T12:52:44;11.40;37.10
4107;DHT22;21906;50.812;7.132;2023-03-01T12:58:29;11.60;36.90
4107;DHT22;21906;50.812;7.132;2023-03-01T13:09:23;11.30;36.50
4107;DHT22;21906;50.812;7.132;2023-03-01T13:11:47;11.40;36.60
4107;DHT22;21906;50.812;7.132;2023-03-01T13:16:53;11.70;37.20
4107;DHT22;21906;50.812;7.132;2023-03-01T13:21:53;12.00;35.30
4107;DHT22;21906;50.812;7.132;2023-03-01T13:24:39;12.10;34.90
4107;DHT22;21906;50.812;7.132;2023-03-01T13:37:41;11.90;33.30
4107;DHT22;21906;50.812;7.132;2023-03-01T13:42:49;12.40;33.50
4107;DHT22;21906;50.812;7.132;2023-03-01T13:45:45;12.80;34.10
4107;DHT22;21906;50.812;7.132;2023-03-01T13:48:27;12.80;32.10
4107;DHT22;21906;50.812;7.132;2023-03-01T13:51:06;12.90;33.60
4107;DHT22;21906;50.812;7.132;2023-03-01T13:53:41;13.20;31.80
4107;DHT22;21906;50.812;7.132;2023-03-01T13:56:43;13.10;31.30
4107;DHT22;21906;50.812;7.132;2023-03-01T13:59:05;12.90;31.30
4107;DHT22;21906;50.812;7.132;2023-03-01T14:01:35;13.00;32.50
4107;DHT22;21906;50.812;7.132;2023-03-01T14:04:03;13.20;32.20
4107;DHT22;21906;50.812;7.132;2023-03-01T14:06:33;13.40;31.70
4107;DHT22;21906;50.812;7.132;2023-03-01T14:09:17;13.40;30.30
4107;DHT22;21906;50.812;7.132;2023-03-01T14:20:09;13.40;30.10
4107;DHT22;21906;50.812;7.132;2023-03-01T14:22:36;13.50;30.80
4107;DHT22;21906;50.812;7.132;2023-03-01T14:25:32;13.70;32.10
4107;DHT22;21906;50.812;7.132;2023-03-01T14:30:47;14.30;30.30
4107;DHT22;21906;50.812;7.132;2023-03-01T14:33:33;14.50;30.90
4107;DHT22;21906;50.812;7.132;2023-03-01T14:36:11;14.70;29.80
4107;DHT22;21906;50.812;7.132;2023-03-01T14:38:38;14.30;29.20
4107;DHT22;21906;50.812;7.132;2023-03-01T14:41:25;14.20;29.20
4107;DHT22;21906;50.812;7.132;2023-03-01T14:43:58;13.90;30.30
4107;DHT22;21906;50.812;7.132;2023-03-01T14:46:30;13.70;30.80
4107;DHT22;21906;50.812;7.132;2023-03-01T14:49:11;14.00;31.90
4107;DHT22;21906;50.812;7.132;2023-03-01T14:51:41;14.20;31.20
4107;DHT22;21906;50.812;7.132;2023-03-01T14:54:27;14.20;31.60
4107;DHT22;21906;50.812;7.132;2023-03-01T14:56:58;14.00;31.60
4107;DHT22;21906;50.812;7.132;2023-03-01T14:59:25;14.10;31.50
4107;DHT22;21906;50.812;7.132;2023-03-01T15:01:54;14.10;30.90
4107;DHT22;21906;50.812;7.132;2023-03-01T15:04:22;14.30;30.80
4107;DHT22;21906;50.812;7.132;2023-03-01T15:06:55;14.50;30.20
4107;DHT22;21906;50.812;7.132;2023-03-01T15:09:32;14.50;30.40
4107;DHT22;21906;50.812;7.132;2023-03-01T15:11:59;14.50;29.90
4107;DHT22;21906;50.812;7.132;2023-03-01T15:14:45;14.40;30.70
4107;DHT22;21906;50.812;7.132;2023-03-01T15:17:30;15.00;30.30
4107;DHT22;21906;50.812;7.132;2023-03-01T15:19:57;15.50;29.30
4107;DHT22;21906;50.812;7.132;2023-03-01T15:22:25;15.10;29.60
4107;DHT22;21906;50.812;7.132;2023-03-01T15:24:52;15.30;29.10
4107;DHT22;21906;50.812;7.132;2023-03-01T15:27:22;15.20;29.20
4107;DHT22;21906;50.812;7.132;2023-03-01T15:29:54;15.50;30.60
4107;DHT22;21906;50.812;7.132;2023-03-01T15:32:31;15.90;28.90
4107;DHT22;21906;50.812;7.132;2023-03-01T15:34:59;15.40;28.80
4107;DHT22;21906;50.812;7.132;2023-03-01T15:37:46;15.20;28.50
4107;DHT22;21906;50.812;7.132;2023-03-01T15:42:47;15.30;29.70
4107;DHT22;21906;50.812;7.132;2023-03-01T15:47:41;14.40;30.90
4107;DHT22;21906;50.812;7.132;2023-03-01T15:50:21;14.10;31.40
4107;DHT22;21906;50.812;7.132;2023-03-01T15:52:47;14.00;31.90
4107;DHT22;21906;50.812;7.132;2023-03-01T15:55:20;13.80;32.30
4107;DHT22;21906;50.812;7.132;2023-03-01T15:57:48;13.70;33.30
4107;DHT22;21906;50.812;7.132;2023-03-01T16:00:14;13.60;32.90
4107;DHT22;21906;50.812;7.132;2023-03-01T16:02:43;13.60;32.80
4107;DHT22;21906;50.812;7.132;2023-03-01T16:05:25;13.90;32.50
4107;DHT22;21906;50.812;7.132;2023-03-01T16:07:52;13.90;32.80
4107;DHT22;21906;50.812;7.132;2023-03-01T16:10:18;14.10;32.70
4107;DHT22;21906;50.812;7.132;2023-03-01T16:12:44;14.00;32.10
4107;DHT22;21906;50.812;7.132;2023-03-01T16:15:21;13.80;31.70
4107;DHT22;21906;50.812;7.132;2023-03-01T16:17:52;13.40;32.30
4107;DHT22;21906;50.812;7.132;2023-03-01T16:20:29;13.30;32.40
4107;DHT22;21906;50.812;7.132;2023-03-01T16:23:01;13.50;32.60
4107;DHT22;21906;50.812;7.132;2023-03-01T16:25:28;13.60;32.40
4107;DHT22;21906;50.812;7.132;2023-03-01T16:27:54;13.80;31.60
4107;DHT22;21906;50.812;7.132;2023-03-01T16:30:22;13.70;31.90
4107;DHT22;21906;50.812;7.132;2023-03-01T16:32:49;13.10;32.50
4107;DHT22;21906;50.812;7.132;2023-03-01T16:35:18;12.70;32.80
4107;DHT22;21906;50.812;7.132;2023-03-01T16:37:45;12.30;33.60
4107;DHT22;21906;50.812;7.132;2023-03-01T16:40:28;11.90;34.70
4107;DHT22;21906;50.812;7.132;2023-03-01T16:42:55;11.50;34.90
4107;DHT22;21906;50.812;7.132;2023-03-01T16:45:25;11.10;35.40
4107;DHT22;21906;50.812;7.132;2023-03-01T16:47:52;10.60;36.00
4107;DHT22;21906;50.812;7.132;2023-03-01T16:50:18;10.40;36.50
4107;DHT22;21906;50.812;7.132;2023-03-01T16:52:44;10.30;36.70
4107;DHT22;21906;50.812;7.132;2023-03-01T16:55:10;10.20;37.00
4107;DHT22;21906;50.812;7.132;2023-03-01T16:57:37;10.00;37.60
4107;DHT22;21906;50.812;7.132;2023-03-01T17:00:13;9.90;37.80
4107;DHT22;21906;50.812;7.132;2023-03-01T17:02:40;9.70;38.00
4107;DHT22;21906;50.812;7.132;2023-03-01T17:05:07;9.60;38.30
4107;DHT22;21906;50.812;7.132;2023-03-01T17:07:33;9.40;38.70
4107;DHT22;21906;50.812;7.132;2023-03-01T17:10:04;9.30;39.10
4107;DHT22;21906;50.812;7.132;2023-03-01T17:12:30;9.10;39.30
4107;DHT22;21906;50.812;7.132;2023-03-01T17:14:57;9.00;39.50
4107;DHT22;21906;50.812;7.132;2023-03-01T17:17:23;8.90;40.00
4107;DHT22;21906;50.812;7.132;2023-03-01T17:19:52;8.90;40.30
4107;DHT22;21906;50.812;7.132;2023-03-01T17:22:24;8.90;40.00
4107;DHT22;21906;50.812;7.132;2023-03-01T17:24:51;8.70;40.30
4107;DHT22;21906;50.812;7.132;2023-03-01T17:27:17;8.70;40.50
4107;DHT22;21906;50.812;7.132;2023-03-01T17:29:44;8.60;40.70
4107;DHT22;21906;50.812;7.132;2023-03-01T17:32:10;8.60;40.60
4107;DHT22;21906;50.812;7.132;2023-03-01T17:34:36;8.50;40.80
4107;DHT22;21906;50.812;7.132;2023-03-01T17:37:02;8.40;41.40
4107;DHT22;21906;50.812;7.132;2023-03-01T17:39:28;8.30;41.60
4107;DHT22;21906;50.812;7.132;2023-03-01T17:42:01;8.40;41.60
4107;DHT22;21906;50.812;7.132;2023-03-01T17:44:27;8.40;41.80
4107;DHT22;21906;50.812;7.132;2023-03-01T17:46:52;8.30;41.60
4107;DHT22;21906;50.812;7.132;2023-03-01T17:49:18;8.40;41.80
4107;DHT22;21906;50.812;7.132;2023-03-01T17:51:44;8.50;41.30
4107;DHT22;21906;50.812;7.132;2023-03-01T17:54:10;8.40;41.00
4107;DHT22;21906;50.812;7.132;2023-03-01T17:56:36;8.20;40.80
4107;DHT22;21906;50.812;7.132;2023-03-01T17:59:04;8.20;40.60
4107;DHT22;21906;50.812;7.132;2023-03-01T18:01:30;8.10;40.40
4107;DHT22;21906;50.812;7.132;2023-03-01T18:03:56;8.10;40.30
4107;DHT22;21906;50.812;7.132;2023-03-01T18:06:24;8.00;40.20
4107;DHT22;21906;50.812;7.132;2023-03-01T18:08:50;8.00;40.40
4107;DHT22;21906;50.812;7.132;2023-03-01T18:11:21;8.00;40.40
4107;DHT22;21906;50.812;7.132;2023-03-01T18:13:47;7.90;40.40
4107;DHT22;21906;50.812;7.132;2023-03-01T18:16:15;7.90;40.30
4107;DHT22;21906;50.812;7.132;2023-03-01T18:18:41;7.90;40.30
4107;DHT22;21906;50.812;7.132;2023-03-01T18:21:09;7.90;40.50
4107;DHT22;21906;50.812;7.132;2023-03-01T18:23:35;7.70;40.90
4107;DHT22;21906;50.812;7.132;2023-03-01T18:26:03;7.60;40.90
4107;DHT22;21906;50.812;7.132;2023-03-01T18:28:30;7.60;41.00
4107;DHT22;21906;50.812;7.132;2023-03-01T18:30:58;7.70;40.90